Chibougamau, Canada
Current Conditions -  °F | °C
As of 7:00 PM on Thursday 27 Nov 2014 (Local Time) from CYMT Reporting Station
Light Snow Light Snow  
Wind Chill: -6°   Ceiling: Unl
Heat Index:   Visibility: 15mi
Dew Point:   Wind: 6mph
Humidity: 85%   Direction: 320°NW
Pressure: 30.06"   Gusts: NA
Location:  49.91°N, 74.37°W
Report Text: CYMT 280000Z 32005KT 15SM -SN SCT003 M15/M17 A3006 RMK CU3 LAST OBS/NEXT 281100 UTC SLP219
Loading
Personal Weather Stations






























Interactive Weather Map New forecast layout! Learn more

10-Day Weather Forecast

Advertisements
Track Severe Weather on mobile